Greenville, Virginia
Current Conditions -  °F | °C
As of 7:15 AM on Monday 26 Jan 2015 (Local Time) from KW13 Reporting Station
Overcast Overcast  
Wind Chill: 35°   Ceiling: 700
Heat Index: 35°   Visibility: 4mi
Dew Point: 34°   Wind: 0mph
Humidity: 97%   Direction: NA
Pressure: 29.68"   Gusts: NA
Location:  38°N, 79.16°W
Report Text: KW13 261215Z AUTO 00000KT 4SM BKN007 OVC013 02/01 A2968 RMK AO1 T00160011
Loading
Personal Weather Stations






























Interactive Weather Map New forecast layout! Learn more

10-Day Weather Forecast

Advertisements
Track Severe Weather on mobile